sensor_id;sensor_type;location;lat;lon;timestamp;P1;durP1;ratioP1;P2;durP2;ratioP2
64018;SDS011;66942;52.138;5.216;2023-04-03T00:03:11;4.1;;;3.2;;
64018;SDS011;66942;52.138;5.216;2023-04-03T00:04:47;4.3;;;3.4;;
64018;SDS011;66942;52.138;5.216;2023-04-03T00:06:24;2.8;;;2.6;;
64018;SDS011;66942;52.138;5.216;2023-04-03T00:09:38;4.0;;;3.2;;
64018;SDS011;66942;52.138;5.216;2023-04-03T00:11:15;3.5;;;3.1;;
64018;SDS011;66942;52.138;5.216;2023-04-03T00:12:51;4.3;;;3.1;;
64018;SDS011;66942;52.138;5.216;2023-04-03T00:14:28;3.7;;;3.2;;
64018;SDS011;66942;52.138;5.216;2023-04-03T00:17:43;3.3;;;3.0;;
64018;SDS011;66942;52.138;5.216;2023-04-03T00:19:19;4.91;;;3.4;;
64018;SDS011;66942;52.138;5.216;2023-04-03T00:20:56;5.6;;;3.8;;
64018;SDS011;66942;52.138;5.216;2023-04-03T00:24:10;5.0;;;3.1;;
64018;SDS011;66942;52.138;5.216;2023-04-03T00:25:46;4.3;;;3.3;;
64018;SDS011;66942;52.138;5.216;2023-04-03T00:27:23;4.1;;;2.9;;
64018;SDS011;66942;52.138;5.216;2023-04-03T00:28:59;4.5;;;3.6;;
64018;SDS011;66942;52.138;5.216;2023-04-03T00:32:12;4.2;;;3.1;;
64018;SDS011;66942;52.138;5.216;2023-04-03T00:33:49;4.41;;;3.2;;
64018;SDS011;66942;52.138;5.216;2023-04-03T00:35:26;4.3;;;3.4;;
64018;SDS011;66942;52.138;5.216;2023-04-03T00:38:40;4.5;;;3.0;;
64018;SDS011;66942;52.138;5.216;2023-04-03T00:40:17;4.41;;;3.3;;
64018;SDS011;66942;52.138;5.216;2023-04-03T00:41:54;5.2;;;3.4;;
64018;SDS011;66942;52.138;5.216;2023-04-03T00:45:25;3.7;;;2.8;;
64018;SDS011;66942;52.138;5.216;2023-04-03T00:47:08;4.91;;;3.2;;
64018;SDS011;66942;52.138;5.216;2023-04-03T00:48:47;4.3;;;3.6;;
64018;SDS011;66942;52.138;5.216;2023-04-03T00:50:24;6.1;;;4.5;;
64018;SDS011;66942;52.138;5.216;2023-04-03T00:52:02;7.5;;;4.8;;
64018;SDS011;66942;52.138;5.216;2023-04-03T00:55:25;5.6;;;4.0;;
64018;SDS011;66942;52.138;5.216;2023-04-03T00:57:01;7.8;;;5.2;;
64018;SDS011;66942;52.138;5.216;2023-04-03T00:58:42;8.4;;;4.8;;
64018;SDS011;66942;52.138;5.216;2023-04-03T01:00:24;8.1;;;4.41;;
64018;SDS011;66942;52.138;5.216;2023-04-03T01:03:38;7.1;;;4.3;;
64018;SDS011;66942;52.138;5.216;2023-04-03T01:05:14;6.1;;;4.5;;
64018;SDS011;66942;52.138;5.216;2023-04-03T01:06:52;8.31;;;5.2;;
64018;SDS011;66942;52.138;5.216;2023-04-03T01:10:09;10.5;;;5.8;;
64018;SDS011;66942;52.138;5.216;2023-04-03T01:11:49;10.0;;;5.5;;
64018;SDS011;66942;52.138;5.216;2023-04-03T01:13:26;10.0;;;5.5;;
64018;SDS011;66942;52.138;5.216;2023-04-03T01:15:06;12.2;;;6.9;;
64018;SDS011;66942;52.138;5.216;2023-04-03T01:18:29;8.4;;;5.2;;
64018;SDS011;66942;52.138;5.216;2023-04-03T01:23:56;10.7;;;6.1;;
64018;SDS011;66942;52.138;5.216;2023-04-03T01:25:45;10.1;;;6.1;;
64018;SDS011;66942;52.138;5.216;2023-04-03T01:27:24;10.1;;;6.3;;
64018;SDS011;66942;52.138;5.216;2023-04-03T01:30:39;7.3;;;5.3;;
64018;SDS011;66942;52.138;5.216;2023-04-03T01:32:22;6.4;;;4.2;;
64018;SDS011;66942;52.138;5.216;2023-04-03T01:34:00;6.2;;;4.1;;
64018;SDS011;66942;52.138;5.216;2023-04-03T01:37:14;4.7;;;3.5;;
64018;SDS011;66942;52.138;5.216;2023-04-03T01:38:50;4.3;;;3.6;;
64018;SDS011;66942;52.138;5.216;2023-04-03T01:40:27;4.8;;;4.0;;
64018;SDS011;66942;52.138;5.216;2023-04-03T01:42:04;3.8;;;3.5;;
64018;SDS011;66942;52.138;5.216;2023-04-03T01:45:18;3.5;;;3.0;;
64018;SDS011;66942;52.138;5.216;2023-04-03T01:46:54;5.0;;;4.1;;
64018;SDS011;66942;52.138;5.216;2023-04-03T01:48:31;5.4;;;4.91;;
64018;SDS011;66942;52.138;5.216;2023-04-03T01:51:45;6.4;;;4.91;;
64018;SDS011;66942;52.138;5.216;2023-04-03T01:53:21;8.0;;;5.6;;
64018;SDS011;66942;52.138;5.216;2023-04-03T01:54:57;6.7;;;4.7;;
64018;SDS011;66942;52.138;5.216;2023-04-03T01:56:34;4.2;;;3.8;;
64018;SDS011;66942;52.138;5.216;2023-04-03T01:59:46;4.41;;;4.0;;
64018;SDS011;66942;52.138;5.216;2023-04-03T02:01:23;4.7;;;3.6;;
64018;SDS011;66942;52.138;5.216;2023-04-03T02:03:01;3.8;;;3.3;;
64018;SDS011;66942;52.138;5.216;2023-04-03T02:06:15;4.5;;;3.7;;
64018;SDS011;66942;52.138;5.216;2023-04-03T02:07:51;5.2;;;3.6;;
64018;SDS011;66942;52.138;5.216;2023-04-03T02:09:27;4.2;;;3.8;;
64018;SDS011;66942;52.138;5.216;2023-04-03T02:12:40;4.2;;;3.8;;
64018;SDS011;66942;52.138;5.216;2023-04-03T02:14:16;4.61;;;3.3;;
64018;SDS011;66942;52.138;5.216;2023-04-03T02:15:52;3.0;;;2.8;;
64018;SDS011;66942;52.138;5.216;2023-04-03T02:19:04;4.3;;;3.6;;
64018;SDS011;66942;52.138;5.216;2023-04-03T02:20:41;5.4;;;3.7;;
64018;SDS011;66942;52.138;5.216;2023-04-03T02:22:17;3.9;;;3.6;;
64018;SDS011;66942;52.138;5.216;2023-04-03T02:23:53;5.5;;;4.1;;
64018;SDS011;66942;52.138;5.216;2023-04-03T02:27:08;4.61;;;3.6;;
64018;SDS011;66942;52.138;5.216;2023-04-03T02:28:44;3.8;;;3.3;;
64018;SDS011;66942;52.138;5.216;2023-04-03T02:30:20;3.3;;;3.0;;
64018;SDS011;66942;52.138;5.216;2023-04-03T02:33:32;4.8;;;3.7;;
64018;SDS011;66942;52.138;5.216;2023-04-03T02:35:10;4.2;;;3.4;;
64018;SDS011;66942;52.138;5.216;2023-04-03T02:36:47;4.5;;;2.9;;
64018;SDS011;66942;52.138;5.216;2023-04-03T02:40:00;3.5;;;3.2;;
64018;SDS011;66942;52.138;5.216;2023-04-03T02:41:36;3.9;;;3.3;;
64018;SDS011;66942;52.138;5.216;2023-04-03T02:43:12;3.7;;;3.4;;
64018;SDS011;66942;52.138;5.216;2023-04-03T02:44:49;4.5;;;3.3;;
64018;SDS011;66942;52.138;5.216;2023-04-03T02:48:01;3.9;;;2.9;;
64018;SDS011;66942;52.138;5.216;2023-04-03T02:49:37;3.7;;;3.0;;
64018;SDS011;66942;52.138;5.216;2023-04-03T02:51:13;3.3;;;2.9;;
64018;SDS011;66942;52.138;5.216;2023-04-03T02:54:26;5.11;;;3.5;;
64018;SDS011;66942;52.138;5.216;2023-04-03T02:56:02;4.7;;;3.1;;
64018;SDS011;66942;52.138;5.216;2023-04-03T02:57:38;4.8;;;3.6;;
64018;SDS011;66942;52.138;5.216;2023-04-03T03:00:52;3.4;;;3.1;;
64018;SDS011;66942;52.138;5.216;2023-04-03T03:02:28;3.0;;;2.7;;
64018;SDS011;66942;52.138;5.216;2023-04-03T03:04:04;3.4;;;3.0;;
64018;SDS011;66942;52.138;5.216;2023-04-03T03:05:40;3.8;;;3.3;;
64018;SDS011;66942;52.138;5.216;2023-04-03T03:08:53;3.2;;;2.9;;
64018;SDS011;66942;52.138;5.216;2023-04-03T03:10:29;3.9;;;3.4;;
64018;SDS011;66942;52.138;5.216;2023-04-03T03:12:05;3.8;;;3.2;;
64018;SDS011;66942;52.138;5.216;2023-04-03T03:15:17;4.91;;;3.1;;
64018;SDS011;66942;52.138;5.216;2023-04-03T03:16:54;3.2;;;2.9;;
64018;SDS011;66942;52.138;5.216;2023-04-03T03:18:30;3.4;;;3.1;;
64018;SDS011;66942;52.138;5.216;2023-04-03T03:21:43;3.3;;;3.0;;
64018;SDS011;66942;52.138;5.216;2023-04-03T03:23:20;3.2;;;2.7;;
64018;SDS011;66942;52.138;5.216;2023-04-03T03:25:00;4.5;;;3.1;;
64018;SDS011;66942;52.138;5.216;2023-04-03T03:26:37;4.1;;;3.0;;
64018;SDS011;66942;52.138;5.216;2023-04-03T03:29:49;4.0;;;3.1;;
64018;SDS011;66942;52.138;5.216;2023-04-03T03:31:25;3.7;;;2.7;;
64018;SDS011;66942;52.138;5.216;2023-04-03T03:33:02;3.4;;;3.0;;
64018;SDS011;66942;52.138;5.216;2023-04-03T03:36:15;3.9;;;3.3;;
64018;SDS011;66942;52.138;5.216;2023-04-03T03:37:51;4.8;;;3.6;;
64018;SDS011;66942;52.138;5.216;2023-04-03T03:39:27;5.9;;;3.4;;
64018;SDS011;66942;52.138;5.216;2023-04-03T03:42:40;3.5;;;3.2;;
64018;SDS011;66942;52.138;5.216;2023-04-03T03:44:16;5.11;;;3.2;;
64018;SDS011;66942;52.138;5.216;2023-04-03T03:45:52;4.7;;;3.3;;
64018;SDS011;66942;52.138;5.216;2023-04-03T03:47:29;4.8;;;3.6;;
64018;SDS011;66942;52.138;5.216;2023-04-03T03:50:42;4.8;;;3.7;;
64018;SDS011;66942;52.138;5.216;2023-04-03T03:52:18;4.7;;;3.5;;
64018;SDS011;66942;52.138;5.216;2023-04-03T03:53:54;3.5;;;3.0;;
64018;SDS011;66942;52.138;5.216;2023-04-03T03:57:07;5.11;;;3.8;;
64018;SDS011;66942;52.138;5.216;2023-04-03T03:58:44;4.0;;;3.5;;
64018;SDS011;66942;52.138;5.216;2023-04-03T04:00:20;4.5;;;3.9;;
64018;SDS011;66942;52.138;5.216;2023-04-03T04:03:33;5.4;;;4.1;;
64018;SDS011;66942;52.138;5.216;2023-04-03T04:05:09;4.41;;;3.3;;
64018;SDS011;66942;52.138;5.216;2023-04-03T04:06:45;3.1;;;2.8;;
64018;SDS011;66942;52.138;5.216;2023-04-03T04:08:21;3.4;;;3.1;;
64018;SDS011;66942;52.138;5.216;2023-04-03T04:11:34;4.0;;;3.3;;
64018;SDS011;66942;52.138;5.216;2023-04-03T04:13:10;3.3;;;3.0;;
64018;SDS011;66942;52.138;5.216;2023-04-03T04:14:46;6.1;;;4.1;;
64018;SDS011;66942;52.138;5.216;2023-04-03T04:17:58;4.41;;;2.9;;
64018;SDS011;66942;52.138;5.216;2023-04-03T04:19:35;3.8;;;3.4;;
64018;SDS011;66942;52.138;5.216;2023-04-03T04:21:11;3.8;;;3.5;;
64018;SDS011;66942;52.138;5.216;2023-04-03T04:24:23;4.0;;;3.3;;
64018;SDS011;66942;52.138;5.216;2023-04-03T04:25:59;3.4;;;2.9;;
64018;SDS011;66942;52.138;5.216;2023-04-03T04:27:37;5.3;;;4.3;;
64018;SDS011;66942;52.138;5.216;2023-04-03T04:30:49;4.5;;;3.8;;
64018;SDS011;66942;52.138;5.216;2023-04-03T04:32:25;5.0;;;3.9;;
64018;SDS011;66942;52.138;5.216;2023-04-03T04:34:02;6.8;;;3.9;;
64018;SDS011;66942;52.138;5.216;2023-04-03T04:35:38;4.2;;;3.9;;
64018;SDS011;66942;52.138;5.216;2023-04-03T04:38:50;6.5;;;4.0;;
64018;SDS011;66942;52.138;5.216;2023-04-03T04:40:27;4.7;;;4.0;;
64018;SDS011;66942;52.138;5.216;2023-04-03T04:42:03;5.2;;;4.41;;
64018;SDS011;66942;52.138;5.216;2023-04-03T04:45:16;6.7;;;4.3;;
64018;SDS011;66942;52.138;5.216;2023-04-03T04:46:52;6.1;;;4.41;;
64018;SDS011;66942;52.138;5.216;2023-04-03T04:48:28;5.3;;;3.8;;
64018;SDS011;66942;52.138;5.216;2023-04-03T04:51:42;5.5;;;4.7;;
64018;SDS011;66942;52.138;5.216;2023-04-03T04:53:18;5.0;;;3.6;;
64018;SDS011;66942;52.138;5.216;2023-04-03T04:54:54;5.9;;;4.91;;
64018;SDS011;66942;52.138;5.216;2023-04-03T04:56:30;4.7;;;4.0;;
64018;SDS011;66942;52.138;5.216;2023-04-03T04:59:43;7.0;;;4.7;;
64018;SDS011;66942;52.138;5.216;2023-04-03T05:01:19;6.3;;;4.61;;
64018;SDS011;66942;52.138;5.216;2023-04-03T05:02:55;5.9;;;4.2;;
64018;SDS011;66942;52.138;5.216;2023-04-03T05:07:44;6.2;;;4.3;;
64018;SDS011;66942;52.138;5.216;2023-04-03T05:09:20;5.0;;;3.7;;
64018;SDS011;66942;52.138;5.216;2023-04-03T05:12:32;4.3;;;3.9;;
64018;SDS011;66942;52.138;5.216;2023-04-03T05:14:09;7.4;;;4.61;;
64018;SDS011;66942;52.138;5.216;2023-04-03T05:15:45;6.0;;;3.9;;
64018;SDS011;66942;52.138;5.216;2023-04-03T05:18:58;6.2;;;4.91;;
64018;SDS011;66942;52.138;5.216;2023-04-03T05:20:34;6.0;;;4.91;;
64018;SDS011;66942;52.138;5.216;2023-04-03T05:22:11;5.5;;;4.2;;
64018;SDS011;66942;52.138;5.216;2023-04-03T05:23:47;4.5;;;4.1;;
64018;SDS011;66942;52.138;5.216;2023-04-03T05:26:59;4.8;;;4.41;;
64018;SDS011;66942;52.138;5.216;2023-04-03T05:28:35;5.7;;;4.3;;
64018;SDS011;66942;52.138;5.216;2023-04-03T05:30:12;5.2;;;4.7;;
64018;SDS011;66942;52.138;5.216;2023-04-03T05:33:26;6.6;;;4.5;;
64018;SDS011;66942;52.138;5.216;2023-04-03T05:35:02;5.0;;;4.0;;
64018;SDS011;66942;52.138;5.216;2023-04-03T05:36:39;6.1;;;5.2;;
64018;SDS011;66942;52.138;5.216;2023-04-03T05:39:52;6.1;;;5.2;;
64018;SDS011;66942;52.138;5.216;2023-04-03T05:41:28;7.6;;;5.7;;
64018;SDS011;66942;52.138;5.216;2023-04-03T05:43:04;8.0;;;5.5;;
64018;SDS011;66942;52.138;5.216;2023-04-03T05:44:40;8.31;;;6.4;;
64018;SDS011;66942;52.138;5.216;2023-04-03T05:47:55;8.71;;;4.5;;
64018;SDS011;66942;52.138;5.216;2023-04-03T05:49:31;7.1;;;5.0;;
64018;SDS011;66942;52.138;5.216;2023-04-03T05:51:09;8.4;;;5.6;;
64018;SDS011;66942;52.138;5.216;2023-04-03T05:54:31;6.3;;;4.3;;
64018;SDS011;66942;52.138;5.216;2023-04-03T05:56:07;5.4;;;3.8;;
64018;SDS011;66942;52.138;5.216;2023-04-03T05:57:43;6.8;;;3.7;;
64018;SDS011;66942;52.138;5.216;2023-04-03T05:59:20;4.7;;;4.2;;
64018;SDS011;66942;52.138;5.216;2023-04-03T06:02:33;6.1;;;4.2;;
64018;SDS011;66942;52.138;5.216;2023-04-03T06:04:09;11.1;;;5.7;;
64018;SDS011;66942;52.138;5.216;2023-04-03T06:05:46;7.3;;;4.61;;
64018;SDS011;66942;52.138;5.216;2023-04-03T06:09:00;121.2;;;44.7;;
64018;SDS011;66942;52.138;5.216;2023-04-03T06:10:37;196.6;;;60.9;;
64018;SDS011;66942;52.138;5.216;2023-04-03T06:12:13;252.1;;;92.4;;
64018;SDS011;66942;52.138;5.216;2023-04-03T06:15:26;203.3;;;79.2;;
64018;SDS011;66942;52.138;5.216;2023-04-03T06:17:02;126.3;;;50.2;;
64018;SDS011;66942;52.138;5.216;2023-04-03T06:18:39;94.7;;;41.1;;
64018;SDS011;66942;52.138;5.216;2023-04-03T06:25:13;11.6;;;6.4;;
64018;SDS011;66942;52.138;5.216;2023-04-03T06:26:49;10.8;;;6.7;;
64018;SDS011;66942;52.138;5.216;2023-04-03T06:30:01;8.4;;;5.5;;
64018;SDS011;66942;52.138;5.216;2023-04-03T06:31:38;8.5;;;4.41;;
64018;SDS011;66942;52.138;5.216;2023-04-03T06:33:14;5.5;;;4.2;;
64018;SDS011;66942;52.138;5.216;2023-04-03T06:34:50;7.3;;;4.0;;
64018;SDS011;66942;52.138;5.216;2023-04-03T06:38:02;5.11;;;3.7;;
64018;SDS011;66942;52.138;5.216;2023-04-03T06:39:38;4.61;;;3.4;;
64018;SDS011;66942;52.138;5.216;2023-04-03T06:41:15;4.91;;;3.7;;
64018;SDS011;66942;52.138;5.216;2023-04-03T06:44:28;5.7;;;3.3;;
64018;SDS011;66942;52.138;5.216;2023-04-03T06:46:04;5.6;;;3.6;;
64018;SDS011;66942;52.138;5.216;2023-04-03T06:47:40;3.7;;;3.2;;
64018;SDS011;66942;52.138;5.216;2023-04-03T06:50:52;6.2;;;3.4;;
64018;SDS011;66942;52.138;5.216;2023-04-03T06:52:29;6.4;;;2.9;;
64018;SDS011;66942;52.138;5.216;2023-04-03T06:54:05;4.5;;;3.3;;
64018;SDS011;66942;52.138;5.216;2023-04-03T06:57:18;4.7;;;2.9;;
64018;SDS011;66942;52.138;5.216;2023-04-03T06:58:55;4.7;;;2.9;;
64018;SDS011;66942;52.138;5.216;2023-04-03T07:00:31;4.5;;;2.6;;
64018;SDS011;66942;52.138;5.216;2023-04-03T07:02:08;4.91;;;2.9;;
64018;SDS011;66942;52.138;5.216;2023-04-03T07:05:24;4.91;;;2.9;;
64018;SDS011;66942;52.138;5.216;2023-04-03T07:07:01;5.6;;;3.3;;
64018;SDS011;66942;52.138;5.216;2023-04-03T07:08:37;7.5;;;3.0;;
64018;SDS011;66942;52.138;5.216;2023-04-03T07:11:50;7.0;;;3.0;;
64018;SDS011;66942;52.138;5.216;2023-04-03T07:13:27;6.2;;;2.8;;
64018;SDS011;66942;52.138;5.216;2023-04-03T07:15:03;4.8;;;2.7;;
64018;SDS011;66942;52.138;5.216;2023-04-03T07:16:40;5.6;;;2.8;;
64018;SDS011;66942;52.138;5.216;2023-04-03T07:19:52;5.7;;;2.9;;
64018;SDS011;66942;52.138;5.216;2023-04-03T07:21:29;5.0;;;2.5;;
64018;SDS011;66942;52.138;5.216;2023-04-03T07:23:05;4.7;;;2.9;;
64018;SDS011;66942;52.138;5.216;2023-04-03T07:26:18;4.8;;;2.9;;
64018;SDS011;66942;52.138;5.216;2023-04-03T07:27:55;4.1;;;2.8;;
64018;SDS011;66942;52.138;5.216;2023-04-03T07:29:31;3.6;;;2.6;;
64018;SDS011;66942;52.138;5.216;2023-04-03T07:32:47;4.3;;;3.1;;
64018;SDS011;66942;52.138;5.216;2023-04-03T07:34:23;4.0;;;2.6;;
64018;SDS011;66942;52.138;5.216;2023-04-03T07:35:59;3.1;;;2.5;;
64018;SDS011;66942;52.138;5.216;2023-04-03T07:37:36;4.8;;;2.9;;
64018;SDS011;66942;52.138;5.216;2023-04-03T07:40:49;5.6;;;3.0;;
64018;SDS011;66942;52.138;5.216;2023-04-03T07:42:26;7.8;;;2.8;;
64018;SDS011;66942;52.138;5.216;2023-04-03T07:44:02;2.8;;;2.4;;
64018;SDS011;66942;52.138;5.216;2023-04-03T07:47:18;6.6;;;5.8;;
64018;SDS011;66942;52.138;5.216;2023-04-03T07:48:54;6.1;;;5.4;;
64018;SDS011;66942;52.138;5.216;2023-04-03T07:50:30;5.0;;;4.0;;
64018;SDS011;66942;52.138;5.216;2023-04-03T07:53:43;4.0;;;3.6;;
64018;SDS011;66942;52.138;5.216;2023-04-03T07:55:19;3.8;;;3.4;;
64018;SDS011;66942;52.138;5.216;2023-04-03T07:56:55;5.0;;;2.7;;
64018;SDS011;66942;52.138;5.216;2023-04-03T07:58:31;4.41;;;2.7;;
64018;SDS011;66942;52.138;5.216;2023-04-03T08:01:44;5.3;;;2.6;;
64018;SDS011;66942;52.138;5.216;2023-04-03T08:03:20;4.91;;;2.21;;
64018;SDS011;66942;52.138;5.216;2023-04-03T08:04:56;4.1;;;2.4;;
64018;SDS011;66942;52.138;5.216;2023-04-03T08:08:09;3.1;;;2.4;;
64018;SDS011;66942;52.138;5.216;2023-04-03T08:09:47;4.1;;;2.31;;
64018;SDS011;66942;52.138;5.216;2023-04-03T08:11:23;3.7;;;2.21;;
64018;SDS011;66942;52.138;5.216;2023-04-03T08:14:36;2.8;;;1.8;;
64018;SDS011;66942;52.138;5.216;2023-04-03T08:16:14;4.61;;;1.8;;
64018;SDS011;66942;52.138;5.216;2023-04-03T08:17:54;3.8;;;1.8;;
64018;SDS011;66942;52.138;5.216;2023-04-03T08:19:30;3.3;;;2.21;;
64018;SDS011;66942;52.138;5.216;2023-04-03T08:22:44;2.6;;;1.8;;
64018;SDS011;66942;52.138;5.216;2023-04-03T08:24:20;4.2;;;2.1;;
64018;SDS011;66942;52.138;5.216;2023-04-03T08:25:56;4.41;;;2.31;;
64018;SDS011;66942;52.138;5.216;2023-04-03T08:29:09;3.0;;;1.9;;
64018;SDS011;66942;52.138;5.216;2023-04-03T08:30:45;2.9;;;2.1;;
64018;SDS011;66942;52.138;5.216;2023-04-03T08:32:22;3.3;;;2.0;;
64018;SDS011;66942;52.138;5.216;2023-04-03T08:35:37;3.0;;;1.9;;
64018;SDS011;66942;52.138;5.216;2023-04-03T08:37:14;4.41;;;2.5;;
64018;SDS011;66942;52.138;5.216;2023-04-03T08:38:51;3.7;;;2.21;;
64018;SDS011;66942;52.138;5.216;2023-04-03T08:40:28;2.7;;;2.0;;
64018;SDS011;66942;52.138;5.216;2023-04-03T08:43:54;2.9;;;2.1;;
64018;SDS011;66942;52.138;5.216;2023-04-03T08:45:41;2.9;;;2.1;;
64018;SDS011;66942;52.138;5.216;2023-04-03T08:47:22;3.5;;;2.1;;
64018;SDS011;66942;52.138;5.216;2023-04-03T08:49:04;2.8;;;1.8;;
64018;SDS011;66942;52.138;5.216;2023-04-03T08:50:50;1.9;;;1.6;;
64018;SDS011;66942;52.138;5.216;2023-04-03T08:54:14;4.1;;;3.8;;
64018;SDS011;66942;52.138;5.216;2023-04-03T08:56:00;5.6;;;5.11;;
64018;SDS011;66942;52.138;5.216;2023-04-03T08:57:44;5.11;;;4.7;;
64018;SDS011;66942;52.138;5.216;2023-04-03T08:59:24;2.31;;;1.6;;
64018;SDS011;66942;52.138;5.216;2023-04-03T09:02:52;6.9;;;2.1;;
64018;SDS011;66942;52.138;5.216;2023-04-03T09:04:31;2.21;;;1.5;;
64018;SDS011;66942;52.138;5.216;2023-04-03T09:06:11;2.31;;;1.8;;
64018;SDS011;66942;52.138;5.216;2023-04-03T09:07:53;3.3;;;2.0;;
64018;SDS011;66942;52.138;5.216;2023-04-03T09:09:36;2.1;;;1.6;;
64018;SDS011;66942;52.138;5.216;2023-04-03T09:13:01;2.5;;;1.6;;
64018;SDS011;66942;52.138;5.216;2023-04-03T09:14:45;2.7;;;1.5;;
64018;SDS011;66942;52.138;5.216;2023-04-03T09:16:36;2.7;;;1.5;;
64018;SDS011;66942;52.138;5.216;2023-04-03T09:18:24;2.5;;;1.5;;
64018;SDS011;66942;52.138;5.216;2023-04-03T09:20:11;1.7;;;1.2;;
64018;SDS011;66942;52.138;5.216;2023-04-03T09:23:33;1.9;;;1.5;;
64018;SDS011;66942;52.138;5.216;2023-04-03T09:25:18;2.6;;;1.7;;
64018;SDS011;66942;52.138;5.216;2023-04-03T09:26:57;1.8;;;1.4;;
64018;SDS011;66942;52.138;5.216;2023-04-03T09:28:39;2.5;;;1.2;;
64018;SDS011;66942;52.138;5.216;2023-04-03T09:31:58;1.3;;;0.9;;
64018;SDS011;66942;52.138;5.216;2023-04-03T09:33:36;1.7;;;1.2;;
64018;SDS011;66942;52.138;5.216;2023-04-03T09:35:17;3.0;;;1.11;;
64018;SDS011;66942;52.138;5.216;2023-04-03T09:36:57;1.4;;;0.9;;
64018;SDS011;66942;52.138;5.216;2023-04-03T09:40:44;1.0;;;0.7;;
64018;SDS011;66942;52.138;5.216;2023-04-03T09:42:21;2.0;;;0.8;;
64018;SDS011;66942;52.138;5.216;2023-04-03T09:43:59;1.4;;;0.9;;
64018;SDS011;66942;52.138;5.216;2023-04-03T09:45:35;1.7;;;0.7;;
64018;SDS011;66942;52.138;5.216;2023-04-03T09:49:01;1.0;;;0.8;;
64018;SDS011;66942;52.138;5.216;2023-04-03T09:50:52;1.6;;;0.7;;
64018;SDS011;66942;52.138;5.216;2023-04-03T09:52:33;1.3;;;0.8;;
64018;SDS011;66942;52.138;5.216;2023-04-03T09:54:29;2.5;;;0.8;;
64018;SDS011;66942;52.138;5.216;2023-04-03T09:56:18;1.6;;;0.7;;
64018;SDS011;66942;52.138;5.216;2023-04-03T09:57:59;1.2;;;0.7;;
64018;SDS011;66942;52.138;5.216;2023-04-03T10:01:22;1.2;;;0.7;;
64018;SDS011;66942;52.138;5.216;2023-04-03T10:03:03;1.4;;;0.7;;
64018;SDS011;66942;52.138;5.216;2023-04-03T10:04:41;1.6;;;0.8;;
64018;SDS011;66942;52.138;5.216;2023-04-03T10:06:21;1.2;;;0.8;;
64018;SDS011;66942;52.138;5.216;2023-04-03T10:09:59;1.3;;;0.7;;
64018;SDS011;66942;52.138;5.216;2023-04-03T10:11:38;1.7;;;0.9;;
64018;SDS011;66942;52.138;5.216;2023-04-03T10:13:33;0.9;;;0.6;;
64018;SDS011;66942;52.138;5.216;2023-04-03T10:15:11;0.9;;;0.6;;
64018;SDS011;66942;52.138;5.216;2023-04-03T10:16:50;1.6;;;0.9;;
64018;SDS011;66942;52.138;5.216;2023-04-03T10:20:26;1.4;;;1.0;;
64018;SDS011;66942;52.138;5.216;2023-04-03T10:22:13;1.3;;;0.6;;
64018;SDS011;66942;52.138;5.216;2023-04-03T10:23:57;1.0;;;0.5;;
64018;SDS011;66942;52.138;5.216;2023-04-03T10:25:46;2.8;;;0.6;;
64018;SDS011;66942;52.138;5.216;2023-04-03T10:27:35;0.7;;;0.5;;
64018;SDS011;66942;52.138;5.216;2023-04-03T10:29:21;0.8;;;0.6;;
64018;SDS011;66942;52.138;5.216;2023-04-03T10:31:15;0.8;;;0.5;;
64018;SDS011;66942;52.138;5.216;2023-04-03T10:34:53;0.6;;;0.6;;
64018;SDS011;66942;52.138;5.216;2023-04-03T10:36:38;1.7;;;0.6;;
64018;SDS011;66942;52.138;5.216;2023-04-03T10:38:23;1.6;;;0.5;;
64018;SDS011;66942;52.138;5.216;2023-04-03T10:40:15;1.11;;;0.5;;
64018;SDS011;66942;52.138;5.216;2023-04-03T10:42:05;1.0;;;0.6;;
64018;SDS011;66942;52.138;5.216;2023-04-03T10:43:53;1.2;;;0.6;;
64018;SDS011;66942;52.138;5.216;2023-04-03T10:47:34;2.8;;;0.8;;
64018;SDS011;66942;52.138;5.216;2023-04-03T10:49:24;1.2;;;0.5;;
64018;SDS011;66942;52.138;5.216;2023-04-03T10:51:13;1.7;;;0.7;;
64018;SDS011;66942;52.138;5.216;2023-04-03T10:53:01;1.11;;;0.7;;
64018;SDS011;66942;52.138;5.216;2023-04-03T10:54:45;1.0;;;0.5;;
64018;SDS011;66942;52.138;5.216;2023-04-03T10:56:31;1.0;;;0.5;;
64018;SDS011;66942;52.138;5.216;2023-04-03T11:00:00;1.0;;;0.9;;
64018;SDS011;66942;52.138;5.216;2023-04-03T11:01:41;2.0;;;0.9;;
64018;SDS011;66942;52.138;5.216;2023-04-03T11:03:24;2.0;;;1.3;;
64018;SDS011;66942;52.138;5.216;2023-04-03T11:05:07;1.5;;;0.7;;
64018;SDS011;66942;52.138;5.216;2023-04-03T11:06:56;1.8;;;1.2;;
64018;SDS011;66942;52.138;5.216;2023-04-03T11:10:21;0.6;;;0.6;;
64018;SDS011;66942;52.138;5.216;2023-04-03T11:12:02;1.3;;;0.6;;
64018;SDS011;66942;52.138;5.216;2023-04-03T11:13:49;2.7;;;0.7;;
64018;SDS011;66942;52.138;5.216;2023-04-03T11:15:30;1.0;;;0.5;;
64018;SDS011;66942;52.138;5.216;2023-04-03T11:19:01;1.7;;;0.5;;
64018;SDS011;66942;52.138;5.216;2023-04-03T11:20:53;0.7;;;0.6;;
64018;SDS011;66942;52.138;5.216;2023-04-03T11:22:37;0.9;;;0.6;;
64018;SDS011;66942;52.138;5.216;2023-04-03T11:24:20;1.5;;;1.0;;
64018;SDS011;66942;52.138;5.216;2023-04-03T11:26:02;1.4;;;0.6;;
64018;SDS011;66942;52.138;5.216;2023-04-03T11:27:48;2.1;;;0.9;;
64018;SDS011;66942;52.138;5.216;2023-04-03T11:31:21;1.9;;;0.8;;
64018;SDS011;66942;52.138;5.216;2023-04-03T11:33:15;1.0;;;0.8;;
64018;SDS011;66942;52.138;5.216;2023-04-03T11:35:12;1.6;;;0.7;;
64018;SDS011;66942;52.138;5.216;2023-04-03T11:36:51;1.0;;;0.7;;
64018;SDS011;66942;52.138;5.216;2023-04-03T11:38:32;1.6;;;0.7;;
64018;SDS011;66942;52.138;5.216;2023-04-03T11:42:13;1.11;;;0.7;;
64018;SDS011;66942;52.138;5.216;2023-04-03T11:44:05;1.3;;;0.7;;
64018;SDS011;66942;52.138;5.216;2023-04-03T11:46:09;1.3;;;0.8;;
64018;SDS011;66942;52.138;5.216;2023-04-03T11:47:47;1.2;;;0.8;;
64018;SDS011;66942;52.138;5.216;2023-04-03T11:49:59;2.1;;;0.7;;
64018;SDS011;66942;52.138;5.216;2023-04-03T11:51:39;2.21;;;0.9;;
64018;SDS011;66942;52.138;5.216;2023-04-03T11:53:36;1.7;;;0.7;;
64018;SDS011;66942;52.138;5.216;2023-04-03T11:55:52;2.5;;;0.8;;
64018;SDS011;66942;52.138;5.216;2023-04-03T11:58:12;1.5;;;0.9;;
64018;SDS011;66942;52.138;5.216;2023-04-03T11:59:51;1.4;;;0.9;;
64018;SDS011;66942;52.138;5.216;2023-04-03T12:01:43;1.6;;;1.2;;
64018;SDS011;66942;52.138;5.216;2023-04-03T12:04:22;1.4;;;1.0;;
64018;SDS011;66942;52.138;5.216;2023-04-03T12:06:42;1.3;;;1.0;;
64018;SDS011;66942;52.138;5.216;2023-04-03T12:08:46;1.6;;;0.8;;
64018;SDS011;66942;52.138;5.216;2023-04-03T12:10:26;1.9;;;0.9;;
64018;SDS011;66942;52.138;5.216;2023-04-03T12:12:21;2.31;;;1.11;;
64018;SDS011;66942;52.138;5.216;2023-04-03T12:14:04;1.6;;;1.0;;
64018;SDS011;66942;52.138;5.216;2023-04-03T12:15:51;1.11;;;0.8;;
64018;SDS011;66942;52.138;5.216;2023-04-03T12:19:24;1.5;;;0.8;;
64018;SDS011;66942;52.138;5.216;2023-04-03T12:21:10;1.7;;;0.9;;
64018;SDS011;66942;52.138;5.216;2023-04-03T12:23:06;1.8;;;0.9;;
64018;SDS011;66942;52.138;5.216;2023-04-03T12:24:43;1.5;;;0.8;;
64018;SDS011;66942;52.138;5.216;2023-04-03T12:26:22;1.9;;;0.9;;
64018;SDS011;66942;52.138;5.216;2023-04-03T12:29:43;1.6;;;1.0;;
64018;SDS011;66942;52.138;5.216;2023-04-03T12:31:31;2.6;;;0.9;;
64018;SDS011;66942;52.138;5.216;2023-04-03T12:33:23;1.7;;;1.0;;
64018;SDS011;66942;52.138;5.216;2023-04-03T12:35:16;1.7;;;1.0;;
64018;SDS011;66942;52.138;5.216;2023-04-03T12:37:01;1.8;;;1.2;;
64018;SDS011;66942;52.138;5.216;2023-04-03T12:40:43;1.6;;;0.9;;
64018;SDS011;66942;52.138;5.216;2023-04-03T12:42:32;1.9;;;0.9;;
64018;SDS011;66942;52.138;5.216;2023-04-03T12:44:26;1.5;;;1.0;;
64018;SDS011;66942;52.138;5.216;2023-04-03T12:46:17;1.5;;;1.0;;
64018;SDS011;66942;52.138;5.216;2023-04-03T12:47:55;1.9;;;1.11;;
64018;SDS011;66942;52.138;5.216;2023-04-03T12:49:35;1.3;;;1.0;;
64018;SDS011;66942;52.138;5.216;2023-04-03T12:52:56;1.8;;;0.9;;
64018;SDS011;66942;52.138;5.216;2023-04-03T12:54:36;1.8;;;1.0;;
64018;SDS011;66942;52.138;5.216;2023-04-03T12:56:18;4.3;;;1.3;;
64018;SDS011;66942;52.138;5.216;2023-04-03T12:57:57;2.9;;;1.2;;
64018;SDS011;66942;52.138;5.216;2023-04-03T12:59:49;2.31;;;1.11;;
64018;SDS011;66942;52.138;5.216;2023-04-03T13:03:02;1.5;;;1.0;;
64018;SDS011;66942;52.138;5.216;2023-04-03T13:04:40;1.8;;;0.9;;
64018;SDS011;66942;52.138;5.216;2023-04-03T13:06:17;1.9;;;1.11;;
64018;SDS011;66942;52.138;5.216;2023-04-03T13:09:37;1.5;;;1.0;;